createdAt,value
2022-08-05T00:00:52.111Z,23.79
2022-08-05T00:01:54.002Z,23.52
2022-08-05T00:02:55.853Z,23.79
2022-08-05T00:03:57.719Z,23.80
2022-08-05T00:04:59.445Z,23.73
2022-08-05T00:06:05.410Z,23.77
2022-08-05T00:07:58.848Z,23.78
2022-08-05T00:08:45.305Z,23.78
2022-08-05T00:09:49.259Z,23.79
2022-08-05T00:10:50.986Z,23.78
2022-08-05T00:11:55.744Z,23.78
2022-08-05T00:12:57.939Z,23.75
2022-08-05T00:13:59.910Z,23.70
2022-08-05T00:15:56.309Z,23.63
2022-08-05T00:16:36.582Z,23.75
2022-08-05T00:17:45.212Z,23.74
2022-08-05T00:18:50.129Z,23.74
2022-08-05T00:20:02.166Z,23.72
2022-08-05T00:21:06.904Z,23.72
2022-08-05T00:22:11.235Z,23.73
2022-08-05T00:23:13.509Z,23.73
2022-08-05T00:24:16.115Z,23.71
2022-08-05T00:25:21.098Z,23.73
2022-08-05T00:26:22.914Z,23.74
2022-08-05T00:27:35.737Z,23.75
2022-08-05T00:28:38.262Z,23.75
2022-08-05T00:29:41.629Z,23.74
2022-08-05T00:30:44.172Z,23.64
2022-08-05T00:32:10.101Z,23.68
2022-08-05T00:33:15.451Z,23.64
2022-08-05T00:34:56.798Z,23.71
2022-08-05T00:36:16.140Z,23.72
2022-08-05T00:37:14.394Z,23.72
2022-08-05T00:38:16.235Z,23.73
2022-08-05T00:39:36.964Z,23.64
2022-08-05T00:40:53.406Z,23.71
2022-08-05T00:41:55.850Z,23.65
2022-08-05T00:42:59.573Z,23.71
2022-08-05T00:44:01.648Z,23.72
2022-08-05T00:45:06.647Z,23.71
2022-08-05T00:46:10.594Z,23.71
2022-08-05T00:47:12.328Z,23.70
2022-08-05T00:48:27.527Z,23.61
2022-08-05T00:49:51.158Z,23.72
2022-08-05T00:50:53.703Z,23.66
2022-08-05T00:51:55.385Z,23.66
2022-08-05T00:52:57.159Z,23.75
2022-08-05T00:54:02.234Z,23.74
2022-08-05T00:55:05.344Z,23.76
2022-08-05T00:56:07.942Z,23.69
2022-08-05T00:57:09.881Z,23.74
2022-08-05T00:58:13.341Z,23.75
2022-08-05T00:59:15.033Z,23.75
2022-08-05T01:00:16.968Z,23.71
2022-08-05T01:01:42.239Z,23.74
2022-08-05T01:02:40.641Z,23.60
2022-08-05T01:03:43.180Z,23.70
2022-08-05T01:04:51.786Z,23.71
2022-08-05T01:05:54.723Z,23.67
2022-08-05T01:06:56.993Z,23.69
2022-08-05T01:08:40.391Z,23.65
2022-08-05T01:09:20.514Z,23.69
2022-08-05T01:10:28.841Z,23.61
2022-08-05T01:11:37.217Z,23.63
2022-08-05T01:13:03.259Z,23.65
2022-08-05T01:14:35.613Z,23.57
2022-08-05T01:15:47.854Z,23.43
2022-08-05T01:16:55.398Z,23.52
2022-08-05T01:18:03.942Z,23.61
2022-08-05T01:19:36.671Z,23.56
2022-08-05T01:21:06.521Z,23.55
2022-08-05T01:22:15.445Z,23.56
2022-08-05T01:23:38.519Z,23.53
2022-08-05T01:24:49.055Z,23.53
2022-08-05T01:26:17.106Z,23.51
2022-08-05T01:27:54.871Z,23.51
2022-08-05T01:29:04.644Z,23.49
2022-08-05T01:30:17.847Z,23.38
2022-08-05T01:31:30.219Z,23.47
2022-08-05T01:32:33.966Z,23.44
2022-08-05T01:33:53.506Z,23.36
2022-08-05T01:35:00.553Z,23.39
2022-08-05T01:36:06.834Z,23.39
2022-08-05T01:37:51.928Z,23.34
2022-08-05T01:39:00.988Z,23.32
2022-08-05T01:40:06.057Z,23.31
2022-08-05T01:41:09.319Z,23.29
2022-08-05T01:42:15.319Z,23.29
2022-08-05T01:43:22.064Z,23.19
2022-08-05T01:44:34.289Z,23.27
2022-08-05T01:45:42.895Z,23.20
2022-08-05T01:46:46.418Z,23.22
2022-08-05T01:47:49.944Z,23.19
2022-08-05T01:48:59.036Z,23.19
2022-08-05T01:50:03.218Z,23.11
2022-08-05T01:51:12.190Z,23.09
2022-08-05T01:52:17.798Z,23.11
2022-08-05T01:53:57.624Z,23.01
2022-08-05T01:54:48.724Z,23.00
2022-08-05T01:55:58.934Z,23.01
2022-08-05T01:58:11.869Z,22.98
2022-08-05T01:58:44.724Z,22.86
2022-08-05T01:59:49.846Z,22.86
2022-08-05T02:00:52.799Z,22.90
2022-08-05T02:01:58.148Z,22.89
2022-08-05T02:03:06.898Z,22.90
2022-08-05T02:04:28.902Z,22.87
2022-08-05T02:05:35.948Z,22.85
2022-08-05T02:06:39.557Z,22.84
2022-08-05T02:07:56.232Z,22.78
2022-08-05T02:09:02.474Z,22.73
2022-08-05T02:10:05.565Z,22.72
2022-08-05T02:11:12.690Z,22.73
2022-08-05T02:12:25.755Z,22.70
2022-08-05T02:13:53.128Z,22.68
2022-08-05T02:15:12.383Z,22.69
2022-08-05T02:16:22.121Z,22.71
2022-08-05T02:18:33.038Z,22.74
2022-08-05T02:19:18.276Z,22.74
2022-08-05T02:20:25.274Z,22.72
2022-08-05T02:21:43.021Z,22.73
2022-08-05T02:22:48.504Z,22.72
2022-08-05T02:23:55.519Z,22.67
2022-08-05T02:25:22.349Z,22.60
2022-08-05T02:26:41.043Z,22.71
2022-08-05T02:27:59.792Z,22.70
2022-08-05T02:29:02.650Z,22.68
2022-08-05T02:30:09.045Z,22.62
2022-08-05T02:31:23.870Z,22.64
2022-08-05T02:32:29.381Z,22.61
2022-08-05T02:33:38.821Z,22.70
2022-08-05T02:34:42.759Z,22.69
2022-08-05T02:35:55.854Z,22.66
2022-08-05T02:37:05.133Z,22.59
2022-08-05T02:38:09.376Z,22.56
2022-08-05T02:39:13.052Z,22.67
2022-08-05T02:40:17.202Z,22.66
2022-08-05T02:41:20.714Z,22.54
2022-08-05T02:42:30.700Z,22.67
2022-08-05T02:44:02.816Z,22.68
2022-08-05T02:45:02.757Z,22.60
2022-08-05T02:46:06.279Z,22.63
2022-08-05T02:47:10.284Z,22.52
2022-08-05T02:48:13.354Z,22.55
2022-08-05T02:49:19.447Z,22.48
2022-08-05T02:50:24.930Z,22.53
2022-08-05T02:51:28.567Z,22.51
2022-08-05T02:52:51.086Z,22.51
2022-08-05T02:53:54.858Z,22.48
2022-08-05T02:54:57.858Z,22.37
2022-08-05T02:56:02.363Z,22.46
2022-08-05T02:57:10.365Z,22.45
2022-08-05T02:58:31.404Z,22.43
2022-08-05T02:59:47.757Z,22.43
2022-08-05T03:00:55.842Z,22.41
2022-08-05T03:02:00.885Z,22.37
2022-08-05T03:03:10.385Z,22.37
2022-08-05T03:04:15.788Z,22.33
2022-08-05T03:05:21.769Z,22.32
2022-08-05T03:06:53.645Z,22.29
2022-08-05T03:08:08.578Z,22.26
2022-08-05T03:09:17.856Z,22.25
2022-08-05T03:10:37.182Z,22.21
2022-08-05T03:11:57.244Z,22.24
2022-08-05T03:14:03.438Z,22.21
2022-08-05T03:15:09.309Z,22.22
2022-08-05T03:16:11.145Z,22.20
2022-08-05T03:17:17.532Z,22.20
2022-08-05T03:18:24.744Z,22.16
2022-08-05T03:19:34.199Z,22.14
2022-08-05T03:20:38.087Z,22.11
2022-08-05T03:21:50.570Z,22.13
2022-08-05T03:22:55.249Z,22.09
2022-08-05T03:24:00.023Z,22.10
2022-08-05T03:25:18.809Z,22.08
2022-08-05T03:26:30.510Z,22.07
2022-08-05T03:27:39.333Z,22.02
2022-08-05T03:28:56.480Z,22.06
2022-08-05T03:30:07.812Z,22.06
2022-08-05T03:31:11.043Z,22.03
2022-08-05T03:32:32.894Z,21.72
2022-08-05T03:33:51.163Z,21.99
2022-08-05T03:34:54.774Z,21.99
2022-08-05T03:35:58.950Z,21.99
2022-08-05T03:37:01.681Z,21.98
2022-08-05T03:38:03.826Z,21.92
2022-08-05T03:39:08.491Z,22.00
2022-08-05T03:40:31.360Z,22.04
2022-08-05T03:41:38.621Z,22.05
2022-08-05T03:42:52.585Z,22.08
2022-08-05T03:44:09.023Z,22.11
2022-08-05T03:45:21.815Z,22.14
2022-08-05T03:46:26.800Z,22.16
2022-08-05T03:47:35.602Z,22.22
2022-08-05T03:48:43.154Z,22.26
2022-08-05T03:49:51.607Z,22.33
2022-08-05T03:52:49.112Z,22.37
2022-08-05T03:54:59.373Z,22.46
2022-08-05T03:56:01.037Z,22.52
2022-08-05T03:56:10.776Z,22.59
2022-08-05T03:57:21.779Z,22.62
2022-08-05T03:58:34.839Z,22.67
2022-08-05T03:59:47.697Z,22.73
2022-08-05T04:01:00.705Z,22.83
2022-08-05T04:02:03.374Z,22.92
2022-08-05T04:03:08.264Z,22.95
2022-08-05T04:04:21.332Z,23.10
2022-08-05T04:05:23.997Z,23.16
2022-08-05T04:06:26.635Z,23.25
2022-08-05T04:07:29.193Z,23.31
2022-08-05T04:08:36.816Z,23.34
2022-08-05T04:09:38.913Z,23.52
2022-08-05T04:10:57.069Z,23.62
2022-08-05T04:11:59.993Z,23.69
2022-08-05T04:13:04.252Z,23.75
2022-08-05T04:14:07.375Z,23.74
2022-08-05T04:15:10.955Z,23.92
2022-08-05T04:16:24.111Z,24.00
2022-08-05T04:17:36.402Z,24.07
2022-08-05T04:18:54.203Z,24.11
2022-08-05T04:19:58.741Z,24.26
2022-08-05T04:21:00.608Z,24.44
2022-08-05T04:22:08.965Z,24.51
2022-08-05T04:23:16.022Z,24.65
2022-08-05T04:24:19.396Z,24.76
2022-08-05T04:25:56.619Z,24.86
2022-08-05T04:26:46.960Z,24.97
2022-08-05T04:27:58.945Z,25.15
2022-08-05T04:29:07.227Z,25.29
2022-08-05T04:30:10.805Z,25.44
2022-08-05T04:31:12.810Z,25.52
2022-08-05T04:32:14.587Z,25.67
2022-08-05T04:34:17.929Z,25.71
2022-08-05T04:34:43.642Z,25.86
2022-08-05T04:36:15.691Z,25.98
2022-08-05T04:37:07.319Z,26.20
2022-08-05T04:38:09.892Z,26.26
2022-08-05T04:39:20.896Z,26.41
2022-08-05T04:40:23.620Z,26.60
2022-08-05T04:41:36.593Z,26.62
2022-08-05T04:42:39.070Z,26.83
2022-08-05T04:43:48.239Z,26.98
2022-08-05T04:44:54.676Z,27.10
2022-08-05T04:45:56.353Z,27.22
2022-08-05T04:46:59.623Z,27.25
2022-08-05T04:48:16.438Z,27.37
2022-08-05T04:50:01.977Z,27.62
2022-08-05T04:51:01.948Z,27.78
2022-08-05T04:52:11.647Z,27.81
2022-08-05T04:53:15.607Z,28.02
2022-08-05T04:54:19.815Z,28.15
2022-08-05T04:55:49.829Z,28.22
2022-08-05T04:56:43.667Z,28.17
2022-08-05T04:57:47.605Z,28.23
2022-08-05T04:58:50.413Z,28.33
2022-08-05T04:59:52.694Z,28.52
2022-08-05T05:00:54.484Z,28.60
2022-08-05T05:02:35.356Z,28.75
2022-08-05T05:03:20.520Z,28.93
2022-08-05T05:04:22.331Z,29.12
2022-08-05T05:05:28.167Z,29.32
2022-08-05T05:06:35.830Z,29.54
2022-08-05T05:07:45.737Z,29.53
2022-08-05T05:08:54.721Z,29.65
2022-08-05T05:09:57.380Z,29.72
2022-08-05T05:10:59.104Z,29.92
2022-08-05T05:12:02.934Z,30.02
2022-08-05T05:13:04.999Z,30.15
2022-08-05T05:14:06.818Z,30.25
2022-08-05T05:15:11.079Z,30.39
2022-08-05T05:16:12.856Z,30.48
2022-08-05T05:17:22.874Z,30.58
2022-08-05T05:18:31.559Z,30.70
2022-08-05T05:19:37.029Z,30.83
2022-08-05T05:20:46.767Z,30.97
2022-08-05T05:21:51.483Z,31.15
2022-08-05T05:22:58.770Z,31.28
2022-08-05T05:24:04.278Z,31.31
2022-08-05T05:25:16.897Z,31.56
2022-08-05T05:26:19.159Z,31.73
2022-08-05T05:27:21.140Z,31.91
2022-08-05T05:28:23.042Z,31.99
2022-08-05T05:30:03.410Z,32.09
2022-08-05T05:30:49.784Z,32.21
2022-08-05T05:31:51.721Z,32.33
2022-08-05T05:32:54.706Z,32.42
2022-08-05T05:33:59.437Z,32.48
2022-08-05T05:35:01.908Z,32.56
2022-08-05T05:36:05.278Z,32.64
2022-08-05T05:37:06.992Z,32.81
2022-08-05T05:38:09.126Z,32.93
2022-08-05T05:39:14.841Z,33.00
2022-08-05T05:40:23.342Z,33.16
2022-08-05T05:41:40.117Z,33.27
2022-08-05T05:42:42.659Z,33.27
2022-08-05T05:43:56.994Z,33.48
2022-08-05T05:45:02.994Z,33.47
2022-08-05T05:46:05.141Z,33.52
2022-08-05T05:47:13.342Z,33.59
2022-08-05T05:48:27.424Z,33.55
2022-08-05T05:49:29.650Z,33.74
2022-08-05T05:50:31.527Z,33.79
2022-08-05T05:51:49.654Z,33.93
2022-08-05T05:52:52.936Z,33.99
2022-08-05T05:53:58.776Z,34.08
2022-08-05T05:55:07.338Z,34.11
2022-08-05T05:56:09.706Z,34.11
2022-08-05T05:57:13.733Z,34.15
2022-08-05T05:58:31.587Z,34.23
2022-08-05T05:59:33.918Z,34.29
2022-08-05T06:00:42.210Z,34.09
2022-08-05T06:01:57.144Z,34.20
2022-08-05T06:03:02.595Z,34.35
2022-08-05T06:04:04.767Z,34.41
2022-08-05T06:05:16.932Z,34.58
2022-08-05T06:06:18.945Z,34.73
2022-08-05T06:07:41.736Z,34.85
2022-08-05T06:08:44.534Z,34.76
2022-08-05T06:10:01.421Z,34.89
2022-08-05T06:11:07.643Z,34.87
2022-08-05T06:12:09.831Z,34.93
2022-08-05T06:13:13.874Z,34.93
2022-08-05T06:14:15.664Z,34.80
2022-08-05T06:15:23.996Z,34.76
2022-08-05T06:16:28.978Z,34.77
2022-08-05T06:17:33.171Z,34.88
2022-08-05T06:18:54.804Z,35.03
2022-08-05T06:19:59.607Z,35.19
2022-08-05T06:21:01.618Z,35.30
2022-08-05T06:22:04.407Z,35.28
2022-08-05T06:23:08.368Z,35.43
2022-08-05T06:24:12.180Z,35.40
2022-08-05T06:25:25.094Z,35.46
2022-08-05T06:26:36.077Z,35.34
2022-08-05T06:28:10.966Z,35.41
2022-08-05T06:28:59.623Z,35.32
2022-08-05T06:30:16.959Z,35.40
2022-08-05T06:31:22.571Z,35.29
2022-08-05T06:32:32.439Z,35.55
2022-08-05T06:34:07.279Z,35.65
2022-08-05T06:34:59.217Z,35.67
2022-08-05T06:36:08.187Z,36.00
2022-08-05T06:37:12.367Z,36.12
2022-08-05T06:38:14.181Z,36.13
2022-08-05T06:39:17.837Z,36.32
2022-08-05T06:40:27.764Z,36.40
2022-08-05T06:41:34.798Z,36.44
2022-08-05T06:42:42.944Z,36.58
2022-08-05T06:43:58.798Z,36.78
2022-08-05T06:45:05.472Z,36.88
2022-08-05T06:46:10.634Z,37.11
2022-08-05T06:48:11.458Z,37.14
2022-08-05T06:48:53.053Z,37.08
2022-08-05T06:50:00.325Z,37.55
2022-08-05T06:51:09.338Z,37.59
2022-08-05T06:52:38.043Z,37.68
2022-08-05T06:53:33.625Z,37.75
2022-08-05T06:54:41.149Z,37.74
2022-08-05T06:55:42.931Z,37.63
2022-08-05T06:56:54.500Z,37.62
2022-08-05T06:58:19.801Z,37.74
2022-08-05T06:59:22.394Z,37.89
2022-08-05T07:00:25.499Z,37.89
2022-08-05T07:01:32.644Z,38.08
2022-08-05T07:02:42.637Z,38.13
2022-08-05T07:03:44.381Z,38.00
2022-08-05T07:04:46.143Z,38.12
2022-08-05T07:05:47.940Z,38.24
2022-08-05T07:06:51.423Z,38.29
2022-08-05T07:07:53.200Z,38.10
2022-08-05T07:08:55.425Z,38.19
2022-08-05T07:09:58.295Z,38.30
2022-08-05T07:11:00.508Z,38.43
2022-08-05T07:12:04.141Z,38.64
2022-08-05T07:13:57.146Z,38.83
2022-08-05T07:15:34.045Z,39.11
2022-08-05T07:18:01.905Z,39.36
2022-08-05T07:18:20.385Z,39.38
2022-08-05T07:20:10.624Z,39.60
2022-08-05T07:20:52.842Z,39.64
2022-08-05T07:22:00.442Z,39.73
2022-08-05T07:23:03.027Z,39.82
2022-08-05T07:24:11.309Z,39.72
2022-08-05T07:25:55.039Z,39.62
2022-08-05T07:26:35.037Z,39.69
2022-08-05T07:28:00.073Z,39.72
2022-08-05T07:28:59.785Z,39.70
2022-08-05T07:30:22.390Z,39.61
2022-08-05T07:31:41.014Z,39.76
2022-08-05T07:32:45.178Z,39.93
2022-08-05T07:33:55.116Z,39.99
2022-08-05T07:35:56.718Z,40.04
2022-08-05T07:36:23.532Z,40.13
2022-08-05T07:37:35.901Z,40.30
2022-08-05T07:38:43.255Z,40.31
2022-08-05T07:40:26.150Z,40.19
2022-08-05T07:42:09.118Z,40.30
2022-08-05T07:42:34.024Z,40.39
2022-08-05T07:43:38.109Z,40.49
2022-08-05T07:44:39.833Z,40.48
2022-08-05T07:45:57.180Z,40.27
2022-08-05T07:47:00.136Z,39.97
2022-08-05T07:48:02.205Z,40.29
2022-08-05T07:49:07.765Z,40.36
2022-08-05T07:50:09.921Z,40.34
2022-08-05T07:51:23.564Z,40.41
2022-08-05T07:52:38.862Z,40.48
2022-08-05T07:53:50.826Z,40.43
2022-08-05T07:54:53.296Z,40.65
2022-08-05T07:56:05.101Z,40.72
2022-08-05T07:57:13.958Z,40.90
2022-08-05T07:58:57.389Z,40.87
2022-08-05T07:59:48.886Z,40.99
2022-08-05T08:00:50.929Z,41.11
2022-08-05T08:01:57.696Z,41.19
2022-08-05T08:03:15.434Z,41.22
2022-08-05T08:04:17.632Z,41.24
2022-08-05T08:05:47.260Z,41.22
2022-08-05T08:06:51.605Z,41.10
2022-08-05T08:07:59.535Z,41.00
2022-08-05T08:09:02.291Z,40.94
2022-08-05T08:10:05.413Z,40.80
2022-08-05T08:11:08.920Z,40.76
2022-08-05T08:12:35.611Z,40.84
2022-08-05T08:13:43.013Z,40.98
2022-08-05T08:14:51.341Z,41.19
2022-08-05T08:16:49.917Z,41.42
2022-08-05T08:17:16.160Z,41.67
2022-08-05T08:18:20.966Z,41.73
2022-08-05T08:20:23.031Z,41.82
2022-08-05T08:21:03.180Z,42.05
2022-08-05T08:22:07.361Z,42.26
2022-08-05T08:24:03.357Z,42.26
2022-08-05T08:24:34.740Z,42.29
2022-08-05T08:26:00.895Z,42.55
2022-08-05T08:27:07.054Z,42.71
2022-08-05T08:28:18.201Z,42.83
2022-08-05T08:29:45.106Z,42.81
2022-08-05T08:30:47.890Z,43.00
2022-08-05T08:31:52.474Z,42.85
2022-08-05T08:32:54.232Z,42.93
2022-08-05T08:33:56.384Z,43.04
2022-08-05T08:34:58.838Z,43.09
2022-08-05T08:36:29.409Z,43.09
2022-08-05T08:37:28.056Z,43.21
2022-08-05T08:38:36.129Z,43.16
2022-08-05T08:39:49.507Z,42.91
2022-08-05T08:40:51.887Z,43.05
2022-08-05T08:41:59.730Z,43.07
2022-08-05T08:45:16.161Z,43.01
2022-08-05T08:45:18.936Z,43.09
2022-08-05T08:45:54.229Z,43.08
2022-08-05T08:46:57.023Z,43.10
2022-08-05T08:48:07.011Z,43.23
2022-08-05T08:50:22.385Z,42.78
2022-08-05T08:51:07.763Z,42.06
2022-08-05T08:52:14.381Z,42.24
2022-08-05T08:53:17.170Z,42.35
2022-08-05T08:54:19.210Z,42.43
2022-08-05T08:56:02.421Z,42.44
2022-08-05T08:56:47.681Z,42.30
2022-08-05T08:57:58.257Z,42.06
2022-08-05T08:59:01.350Z,42.07
2022-08-05T09:00:12.044Z,41.95
2022-08-05T09:01:19.237Z,41.81
2022-08-05T09:02:24.332Z,41.74
2022-08-05T09:03:44.929Z,41.65
2022-08-05T09:05:16.052Z,41.53
2022-08-05T09:06:12.084Z,40.74
2022-08-05T09:07:28.161Z,39.98
2022-08-05T09:08:30.461Z,39.83
2022-08-05T09:09:35.433Z,39.78
2022-08-05T09:10:41.490Z,39.73
2022-08-05T09:11:52.997Z,38.98
2022-08-05T09:13:04.967Z,38.87
2022-08-05T09:14:54.564Z,38.70
2022-08-05T09:15:29.211Z,38.33
2022-08-05T09:16:32.499Z,38.42
2022-08-05T09:17:41.075Z,38.41
2022-08-05T09:18:44.633Z,38.44
2022-08-05T09:20:01.614Z,38.92
2022-08-05T09:21:05.680Z,39.07
2022-08-05T09:22:22.000Z,38.97
2022-08-05T09:23:43.352Z,39.13
2022-08-05T09:24:58.156Z,39.54
2022-08-05T09:26:20.545Z,39.78
2022-08-05T09:28:03.847Z,38.95
2022-08-05T09:29:04.763Z,39.27
2022-08-05T09:30:07.135Z,38.79
2022-08-05T09:31:22.440Z,39.24
2022-08-05T09:32:43.038Z,39.87
2022-08-05T09:33:59.059Z,39.95
2022-08-05T09:35:09.158Z,40.35
2022-08-05T09:36:11.669Z,40.74
2022-08-05T09:38:17.389Z,41.02
2022-08-05T09:39:17.969Z,41.43
2022-08-05T09:40:36.405Z,41.90
2022-08-05T09:41:56.668Z,42.13
2022-08-05T09:43:01.374Z,42.24
2022-08-05T09:44:03.931Z,42.43
2022-08-05T09:46:04.707Z,42.67
2022-08-05T09:46:35.091Z,42.57
2022-08-05T09:47:55.079Z,42.57
2022-08-05T09:49:08.283Z,42.90
2022-08-05T09:50:37.386Z,43.04
2022-08-05T09:51:42.228Z,43.12
2022-08-05T09:52:45.241Z,43.11
2022-08-05T09:53:53.163Z,43.21
2022-08-05T09:55:06.250Z,43.32
2022-08-05T09:56:26.977Z,43.38
2022-08-05T09:57:39.564Z,43.50
2022-08-05T09:58:41.940Z,43.57
2022-08-05T09:59:48.006Z,43.52
2022-08-05T10:01:14.601Z,43.06
2022-08-05T10:02:38.637Z,42.44
2022-08-05T10:03:59.592Z,42.60
2022-08-05T10:05:16.381Z,42.76
2022-08-05T10:06:20.635Z,43.00
2022-08-05T10:08:10.709Z,43.25
2022-08-05T10:08:50.447Z,43.44
2022-08-05T10:10:02.704Z,43.62
2022-08-05T10:11:17.151Z,43.80
2022-08-05T10:12:31.684Z,43.87
2022-08-05T10:13:45.645Z,43.98
2022-08-05T10:14:49.801Z,44.21
2022-08-05T10:15:58.438Z,44.40
2022-08-05T10:17:37.667Z,44.64
2022-08-05T10:18:41.834Z,44.70
2022-08-05T10:20:04.096Z,44.46
2022-08-05T10:21:08.400Z,44.62
2022-08-05T10:22:15.809Z,44.73
2022-08-05T10:23:59.431Z,44.93
2022-08-05T10:24:59.367Z,45.03
2022-08-05T10:26:13.965Z,45.05
2022-08-05T10:27:16.857Z,45.15
2022-08-05T10:28:29.251Z,45.12
2022-08-05T10:30:07.105Z,45.17
2022-08-05T10:32:50.648Z,44.90
2022-08-05T10:32:52.974Z,44.32
2022-08-05T10:33:44.816Z,43.96
2022-08-05T10:34:49.386Z,43.58
2022-08-05T10:35:59.789Z,43.19
2022-08-05T10:37:02.597Z,43.05
2022-08-05T10:38:06.144Z,42.86
2022-08-05T10:39:24.603Z,42.62
2022-08-05T10:40:49.537Z,43.02
2022-08-05T10:42:11.435Z,43.19
2022-08-05T10:43:19.761Z,43.45
2022-08-05T10:44:25.733Z,43.48
2022-08-05T10:45:41.855Z,43.56
2022-08-05T10:46:54.224Z,43.85
2022-08-05T10:48:29.397Z,43.71
2022-08-05T10:49:18.576Z,43.23
2022-08-05T10:50:36.479Z,43.12
2022-08-05T10:51:53.088Z,43.07
2022-08-05T10:53:01.842Z,43.16
2022-08-05T10:54:05.847Z,43.11
2022-08-05T10:55:25.770Z,43.02
2022-08-05T10:56:31.327Z,43.09
2022-08-05T10:57:34.182Z,43.21
2022-08-05T10:58:49.628Z,43.22
2022-08-05T11:00:18.501Z,43.31
2022-08-05T11:01:54.103Z,43.53
2022-08-05T11:03:25.144Z,43.57
2022-08-05T11:04:28.199Z,43.68
2022-08-05T11:05:34.107Z,43.75
2022-08-05T11:06:57.616Z,43.67
2022-08-05T11:08:12.767Z,43.65
2022-08-05T11:09:39.152Z,43.61
2022-08-05T11:10:50.340Z,43.65
2022-08-05T11:12:03.332Z,43.88
2022-08-05T11:13:06.961Z,44.06
2022-08-05T11:14:10.977Z,44.20
2022-08-05T11:15:20.215Z,44.41
2022-08-05T11:16:47.853Z,44.27
2022-08-05T11:18:05.973Z,44.04
2022-08-05T11:20:10.583Z,44.22
2022-08-05T11:20:51.634Z,44.45
2022-08-05T11:21:55.531Z,44.50
2022-08-05T11:23:05.729Z,44.20
2022-08-05T11:24:30.403Z,44.11
2022-08-05T11:26:04.418Z,43.97
2022-08-05T11:27:45.850Z,43.81
2022-08-05T11:28:54.024Z,43.62
2022-08-05T11:30:01.762Z,43.68
2022-08-05T11:31:06.134Z,43.89
2022-08-05T11:32:29.147Z,44.08
2022-08-05T11:33:46.072Z,44.26
2022-08-05T11:34:51.326Z,44.19
2022-08-05T11:36:02.901Z,44.32
2022-08-05T11:38:30.972Z,44.19
2022-08-05T11:38:45.518Z,44.20
2022-08-05T11:40:00.237Z,43.55
2022-08-05T11:41:36.878Z,43.41
2022-08-05T11:42:37.951Z,43.68
2022-08-05T11:44:04.925Z,43.49
2022-08-05T11:45:23.417Z,43.21
2022-08-05T11:46:33.861Z,43.03
2022-08-05T11:47:48.854Z,42.71
2022-08-05T11:48:51.896Z,42.74
2022-08-05T11:49:58.697Z,42.96
2022-08-05T11:51:01.886Z,43.13
2022-08-05T11:52:11.601Z,43.31
2022-08-05T11:53:13.878Z,43.54
2022-08-05T11:54:33.675Z,43.67
2022-08-05T11:55:36.760Z,43.90
2022-08-05T11:56:50.625Z,43.68
2022-08-05T11:58:08.610Z,43.05
2022-08-05T11:59:24.227Z,43.08
2022-08-05T12:00:30.914Z,43.10
2022-08-05T12:01:32.659Z,43.22
2022-08-05T12:02:36.300Z,43.28
2022-08-05T12:03:55.622Z,43.33
2022-08-05T12:04:59.899Z,43.25
2022-08-05T12:06:05.922Z,43.02
2022-08-05T12:07:09.881Z,43.12
2022-08-05T12:08:18.009Z,43.31
2022-08-05T12:09:52.855Z,43.41
2022-08-05T12:10:49.685Z,43.36
2022-08-05T12:11:54.815Z,43.39
2022-08-05T12:13:04.074Z,43.29
2022-08-05T12:14:17.954Z,43.20
2022-08-05T12:15:35.874Z,43.13
2022-08-05T12:16:45.120Z,42.95
2022-08-05T12:18:04.244Z,43.16
2022-08-05T12:20:27.016Z,43.38
2022-08-05T12:20:38.594Z,43.00
2022-08-05T12:21:49.280Z,42.78
2022-08-05T12:22:51.891Z,42.27
2022-08-05T12:23:54.983Z,42.25
2022-08-05T12:24:57.866Z,42.28
2022-08-05T12:26:00.089Z,42.03
2022-08-05T12:27:09.816Z,41.63
2022-08-05T12:28:37.667Z,41.20
2022-08-05T12:29:39.563Z,41.13
2022-08-05T12:30:45.941Z,41.26
2022-08-05T12:31:53.032Z,41.38
2022-08-05T12:32:58.768Z,41.16
2022-08-05T12:34:14.510Z,40.99
2022-08-05T12:35:24.697Z,41.16
2022-08-05T12:36:39.496Z,41.00
2022-08-05T12:37:43.237Z,40.98
2022-08-05T12:38:45.399Z,40.75
2022-08-05T12:39:51.197Z,40.30
2022-08-05T12:40:54.160Z,40.32
2022-08-05T12:42:02.222Z,40.39
2022-08-05T12:43:07.323Z,40.42
2022-08-05T12:44:21.647Z,40.64
2022-08-05T12:45:42.619Z,40.57
2022-08-05T12:46:56.276Z,40.59
2022-08-05T12:48:01.338Z,40.48
2022-08-05T12:49:19.550Z,40.46
2022-08-05T12:50:27.257Z,40.49
2022-08-05T12:52:13.675Z,40.50
2022-08-05T12:53:08.214Z,40.72
2022-08-05T12:54:29.668Z,40.37
2022-08-05T12:55:32.651Z,40.49
2022-08-05T12:56:41.348Z,40.59
2022-08-05T12:58:50.933Z,40.79
2022-08-05T12:59:14.149Z,41.01
2022-08-05T13:02:01.665Z,41.11
2022-08-05T13:02:07.191Z,41.18
2022-08-05T13:03:12.091Z,41.29
2022-08-05T13:04:20.868Z,40.70
2022-08-05T13:05:24.934Z,40.90
2022-08-05T13:06:51.686Z,41.09
2022-08-05T13:08:00.475Z,41.34
2022-08-05T13:09:13.292Z,41.48
2022-08-05T13:10:19.810Z,41.63
2022-08-05T13:12:01.829Z,41.75
2022-08-05T13:12:58.133Z,41.60
2022-08-05T13:14:04.992Z,41.76
2022-08-05T13:15:16.456Z,41.87
2022-08-05T13:16:24.922Z,41.73
2022-08-05T13:17:32.055Z,41.92
2022-08-05T13:18:55.178Z,42.00
2022-08-05T13:20:12.134Z,41.97
2022-08-05T13:21:13.803Z,41.82
2022-08-05T13:22:28.546Z,41.74
2022-08-05T13:23:31.666Z,41.39
2022-08-05T13:24:50.965Z,40.99
2022-08-05T13:26:01.171Z,41.07
2022-08-05T13:27:03.148Z,41.05
2022-08-05T13:28:06.334Z,41.06
2022-08-05T13:29:08.418Z,41.10
2022-08-05T13:30:33.941Z,40.92
2022-08-05T13:32:04.112Z,40.76
2022-08-05T13:33:01.235Z,40.60
2022-08-05T13:34:21.873Z,40.42
2022-08-05T13:35:31.328Z,40.34
2022-08-05T13:36:47.486Z,40.45
2022-08-05T13:37:55.539Z,40.49
2022-08-05T13:38:57.675Z,40.34
2022-08-05T13:40:16.401Z,40.00
2022-08-05T13:41:21.571Z,40.25
2022-08-05T13:42:27.466Z,40.21
2022-08-05T13:43:45.165Z,40.08
2022-08-05T13:44:52.459Z,39.96
2022-08-05T13:45:54.443Z,39.83
2022-08-05T13:47:02.545Z,39.77
2022-08-05T13:48:56.644Z,39.69
2022-08-05T13:49:31.810Z,39.87
2022-08-05T13:50:37.225Z,39.72
2022-08-05T13:51:45.860Z,39.86
2022-08-05T13:52:50.040Z,40.06
2022-08-05T13:53:51.871Z,40.08
2022-08-05T13:55:01.148Z,40.10
2022-08-05T13:56:04.091Z,39.93
2022-08-05T13:57:21.030Z,39.76
2022-08-05T13:58:30.540Z,39.84
2022-08-05T13:59:32.797Z,39.80
2022-08-05T14:00:36.549Z,39.71
2022-08-05T14:01:44.390Z,39.62
2022-08-05T14:02:58.352Z,39.39
2022-08-05T14:04:21.952Z,39.23
2022-08-05T14:05:48.314Z,39.47
2022-08-05T14:06:58.744Z,39.52
2022-08-05T14:08:21.129Z,39.34
2022-08-05T14:09:29.668Z,39.24
2022-08-05T14:10:31.604Z,39.31
2022-08-05T14:11:33.363Z,39.36
2022-08-05T14:12:55.180Z,39.43
2022-08-05T14:13:57.093Z,39.44
2022-08-05T14:14:59.536Z,39.54
2022-08-05T14:16:04.490Z,39.72
2022-08-05T14:17:11.146Z,39.73
2022-08-05T14:18:23.473Z,39.71
2022-08-05T14:19:25.819Z,39.56
2022-08-05T14:20:30.649Z,39.42
2022-08-05T14:22:09.688Z,39.31
2022-08-05T14:22:54.632Z,39.26
2022-08-05T14:23:56.342Z,39.19
2022-08-05T14:24:58.151Z,39.17
2022-08-05T14:25:59.851Z,39.28
2022-08-05T14:27:17.626Z,39.08
2022-08-05T14:28:26.594Z,38.80
2022-08-05T14:29:31.375Z,38.87
2022-08-05T14:30:33.249Z,38.89
2022-08-05T14:32:03.704Z,38.66
2022-08-05T14:32:57.120Z,38.56
2022-08-05T14:34:01.334Z,38.69
2022-08-05T14:35:04.487Z,38.81
2022-08-05T14:36:12.514Z,38.84
2022-08-05T14:37:14.215Z,38.89
2022-08-05T14:38:33.299Z,38.85
2022-08-05T14:39:49.665Z,38.72
2022-08-05T14:40:58.266Z,38.73
2022-08-05T14:42:19.674Z,38.73
2022-08-05T14:43:22.200Z,38.80
2022-08-05T14:44:45.920Z,38.69
2022-08-05T14:45:47.727Z,38.69
2022-08-05T14:46:49.443Z,38.65
2022-08-05T14:48:02.890Z,38.50
2022-08-05T14:49:08.116Z,38.24
2022-08-05T14:50:18.407Z,38.29
2022-08-05T14:51:20.840Z,38.05
2022-08-05T14:52:50.066Z,37.99
2022-08-05T14:53:44.943Z,37.95
2022-08-05T14:54:52.741Z,37.91
2022-08-05T14:55:55.047Z,37.97
2022-08-05T14:56:58.210Z,38.09
2022-08-05T14:57:59.957Z,38.24
2022-08-05T14:59:02.318Z,38.40
2022-08-05T15:00:06.129Z,38.46
2022-08-05T15:01:16.213Z,38.62
2022-08-05T15:02:18.679Z,38.62
2022-08-05T15:03:22.959Z,38.61
2022-08-05T15:04:28.878Z,38.53
2022-08-05T15:06:08.295Z,38.59
2022-08-05T15:06:52.795Z,38.60
2022-08-05T15:08:06.396Z,38.38
2022-08-05T15:09:15.401Z,38.45
2022-08-05T15:10:17.172Z,38.43